Time;durP1;ratioP1;P1;durP2;ratioP2;P2;SDS_P1;SDS_P2;PMS_P1;PMS_P2;Temp;Humidity;BMP_temperature;BMP_pressure;BME280_temperature;BME280_humidity;BME280_pressure;Samples;Min_cycle;Max_cycle;Signal;HPM_P1;HPM_P2
2021/06/05 00:01:11;;;;;;;6.40;5.80;;;13.40;99.90;;;13.80;100.00;95468.00;2259246;57;26741;-63
2021/06/05 00:03:58;;;;;;;7.03;6.33;;;13.40;99.90;;;13.75;100.00;95455.00;2194421;57;26625;-64
2021/06/05 00:12:39;;;;;;;6.60;6.00;;;13.30;99.90;;;13.60;100.00;95423.00;2233179;54;34238;-63
2021/06/05 00:15:30;;;;;;;6.00;5.40;;;13.10;99.90;;;13.30;100.00;95450.00;2312600;55;26854;-63
2021/06/05 00:18:18;;;;;;;6.33;5.77;;;13.00;99.90;;;13.15;100.00;95449.00;2236166;56;26738;-63
2021/06/05 00:24:03;;;;;;;7.60;5.93;;;12.80;99.90;;;13.11;100.00;95436.00;2207190;55;34370;-63
2021/06/05 00:26:51;;;;;;;6.67;6.07;;;12.90;99.90;;;13.03;100.00;95473.00;2173466;56;26779;-63
2021/06/05 00:29:37;;;;;;;6.97;6.27;;;12.90;99.90;;;13.06;100.00;95475.00;2160243;57;26840;-63
2021/06/05 00:32:24;;;;;;;7.53;6.27;;;12.80;99.90;;;13.01;100.00;95474.00;2242945;56;27050;-62
2021/06/05 00:35:12;;;;;;;7.03;6.30;;;12.90;99.90;;;13.03;100.00;95485.00;2172198;57;26729;-62
2021/06/05 00:37:59;;;;;;;7.00;6.30;;;12.90;99.90;;;13.03;100.00;95481.00;2183936;57;26748;-63
2021/06/05 00:40:52;;;;;;;10.77;6.07;;;12.80;99.90;;;13.01;100.00;95487.00;2213927;57;29003;-63
2021/06/05 00:43:43;;;;;;;5.47;4.97;;;12.70;99.90;;;12.93;100.00;95486.00;2158283;57;26764;-63
2021/06/05 00:46:31;;;;;;;6.53;5.20;;;12.70;99.90;;;13.00;100.00;95485.00;2173481;57;26741;-63
2021/06/05 00:49:17;;;;;;;6.30;5.70;;;12.80;99.90;;;12.99;100.00;95476.00;2160767;56;26650;-64
2021/06/05 00:52:06;;;;;;;6.07;5.57;;;12.80;99.90;;;13.13;100.00;95480.00;2161820;56;26673;-63
2021/06/05 00:54:53;;;;;;;7.00;5.80;;;12.70;99.90;;;12.98;100.00;95483.00;2234104;56;27167;-63
2021/06/05 00:57:39;;;;;;;6.73;6.13;;;12.70;99.90;;;12.97;100.00;95494.00;2173036;56;27177;-63
2021/06/05 01:03:24;;;;;;;6.33;5.73;;;12.70;99.90;;;13.50;100.00;95457.00;2237876;56;34778;-63
2021/06/05 01:12:24;;;;;;;8.03;6.37;;;12.90;99.90;;;13.26;100.00;95454.00;2353069;55;33312;-64
2021/06/05 01:15:17;;;;;;;8.73;6.37;;;12.80;99.90;;;13.07;100.00;95490.00;2201945;57;27144;-63
2021/06/05 01:21:33;;;;;;;6.80;6.10;;;12.90;99.90;;;13.36;100.00;95484.00;2332682;54;33762;-63
2021/06/05 01:27:23;;;;;;;6.50;5.90;;;12.90;99.90;;;13.31;100.00;95487.00;2180703;56;33978;-62
2021/06/05 01:30:19;;;;;;;6.80;6.10;;;12.90;99.90;;;13.18;100.00;95510.00;2195952;58;26240;-63
2021/06/05 01:36:05;;;;;;;7.37;5.97;;;12.80;99.90;;;13.13;100.00;95496.00;2223199;55;33739;-62
2021/06/05 01:39:01;;;;;;;6.67;5.47;;;12.60;99.90;;;12.98;100.00;95540.00;2181298;56;26747;-62
2021/06/05 01:41:49;;;;;;;6.70;6.07;;;12.70;99.90;;;13.05;100.00;95542.00;2258432;57;26990;-62
2021/06/05 01:47:31;;;;;;;6.67;5.67;;;12.70;99.90;;;13.15;100.00;95518.00;2181129;55;33831;-62
2021/06/05 01:50:23;;;;;;;7.30;6.70;;;12.70;99.90;;;13.00;100.00;95543.00;2171974;57;27190;-63
2021/06/05 01:56:17;;;;;;;7.10;6.40;;;12.60;99.90;;;12.93;100.00;95526.00;2198592;56;33755;-62
2021/06/05 01:59:11;;;;;;;6.77;6.03;;;12.50;99.90;;;12.98;100.00;95561.00;2124017;58;26715;-62
2021/06/05 02:04:54;;;;;;;6.43;5.83;;;12.60;99.90;;;12.88;100.00;95515.00;2210154;56;34329;-62
2021/06/05 02:07:40;;;;;;;5.90;5.40;;;12.60;99.90;;;12.90;100.00;95541.00;2147924;56;26652;-62
2021/06/05 02:10:31;;;;;;;6.57;5.50;;;12.50;99.90;;;12.78;100.00;95550.00;2158911;56;26706;-62
2021/06/05 02:13:23;;;;;;;8.33;5.60;;;12.50;99.90;;;12.62;100.00;95549.00;2186561;57;27387;-63
2021/06/05 02:16:18;;;;;;;7.07;6.40;;;12.40;99.90;;;12.63;100.00;95545.00;2133285;57;26344;-63
2021/06/05 02:19:11;;;;;;;7.03;6.33;;;12.40;99.90;;;12.70;100.00;95551.00;2150463;57;26260;-62
2021/06/05 02:22:01;;;;;;;7.50;6.70;;;12.40;99.90;;;12.62;100.00;95554.00;2145707;57;27413;-65
2021/06/05 02:24:52;;;;;;;7.00;6.30;;;12.40;99.90;;;12.72;100.00;95559.00;2161164;57;26270;-63
2021/06/05 02:27:40;;;;;;;8.70;7.10;;;12.20;99.90;;;12.36;100.00;95559.00;2184864;57;27265;-62
2021/06/05 02:30:28;;;;;;;7.67;6.87;;;12.10;99.90;;;12.52;100.00;95559.00;2180763;57;26838;-65
2021/06/05 02:33:14;;;;;;;7.27;6.60;;;12.10;99.90;;;12.31;100.00;95559.00;2185321;57;26731;-66
2021/06/05 02:36:05;;;;;;;8.40;6.90;;;12.10;99.90;;;12.29;100.00;95561.00;2193582;57;26791;-66
2021/06/05 02:41:52;;;;;;;7.57;6.87;;;12.50;99.90;;;12.86;100.00;95535.00;2192564;55;34719;-66
2021/06/05 02:47:34;;;;;;;8.80;8.00;;;12.40;99.90;;;12.50;100.00;95537.00;2181105;55;34442;-66
2021/06/05 02:50:20;;;;;;;7.73;6.97;;;12.40;99.90;;;12.69;100.00;95571.00;2181600;56;26609;-66
2021/06/05 02:53:08;;;;;;;9.90;7.37;;;12.20;99.90;;;12.44;100.00;95574.00;2182773;56;25857;-66
2021/06/05 02:55:54;;;;;;;8.37;7.40;;;12.20;99.90;;;12.30;100.00;95580.00;2195290;56;26686;-66
2021/06/05 02:58:42;;;;;;;8.20;7.43;;;12.10;99.90;;;12.27;100.00;95579.00;2171347;56;26250;-64
2021/06/05 03:01:28;;;;;;;10.10;7.63;;;12.10;99.90;;;12.29;100.00;95587.00;2173537;56;26749;-64
2021/06/05 03:04:16;;;;;;;9.47;8.03;;;12.20;99.90;;;12.35;100.00;95586.00;2207938;56;27208;-64
2021/06/05 03:09:58;;;;;;;9.57;8.03;;;12.00;99.90;;;12.32;100.00;95555.00;2212961;55;34349;-64
2021/06/05 03:12:45;;;;;;;9.10;7.70;;;12.00;99.90;;;12.16;100.00;95598.00;2212843;56;26285;-64
2021/06/05 03:18:28;;;;;;;8.57;7.77;;;11.90;99.90;;;12.10;100.00;95563.00;2227823;54;34168;-63
2021/06/05 03:24:15;;;;;;;10.00;8.80;;;11.80;99.90;;;12.04;100.00;95557.00;2246305;55;33828;-63
2021/06/05 03:27:02;;;;;;;11.23;8.53;;;11.90;99.90;;;12.22;100.00;95588.00;2185523;55;27730;-63
2021/06/05 03:29:48;;;;;;;11.77;8.37;;;11.90;99.90;;;12.06;100.00;95589.00;2179947;55;26616;-63
2021/06/05 03:32:35;;;;;;;12.17;9.60;;;11.80;99.90;;;11.91;100.00;95586.00;2187160;55;27270;-64
2021/06/05 03:35:22;;;;;;;10.47;8.17;;;11.80;99.90;;;11.94;100.00;95585.00;2403622;55;26825;-64
2021/06/05 03:38:10;;;;;;;10.07;8.17;;;11.80;99.90;;;12.00;100.00;95590.00;2191899;56;26980;-64
2021/06/05 03:40:56;;;;;;;9.87;8.80;;;12.00;99.90;;;12.31;100.00;95587.00;2391223;55;26750;-63
2021/06/05 03:43:43;;;;;;;9.10;8.20;;;12.20;99.90;;;12.57;100.00;95587.00;2159555;56;26192;-64
2021/06/05 03:46:29;;;;;;;9.40;7.77;;;12.10;99.90;;;12.30;100.00;95575.00;2160578;56;26120;-64
2021/06/05 03:49:16;;;;;;;9.77;8.17;;;11.90;99.90;;;12.09;100.00;95573.00;2371865;56;27755;-64
2021/06/05 03:52:03;;;;;;;9.93;8.23;;;11.80;99.90;;;12.01;100.00;95573.00;2160677;56;26729;-63
2021/06/05 03:54:49;;;;;;;9.80;8.33;;;11.80;99.90;;;12.04;100.00;95581.00;2372685;56;27257;-63
2021/06/05 04:00:36;;;;;;;9.27;7.93;;;12.00;99.90;;;12.35;100.00;95550.00;2253679;54;33743;-63
2021/06/05 04:03:23;;;;;;;9.03;8.13;;;12.00;99.90;;;12.22;100.00;95581.00;2240768;55;26718;-62
2021/06/05 04:06:11;;;;;;;9.17;8.17;;;12.00;99.90;;;12.22;100.00;95584.00;2247702;54;26624;-62
2021/06/05 04:08:58;;;;;;;9.97;7.83;;;12.10;99.90;;;12.55;100.00;95584.00;2274550;54;26125;-64
2021/06/05 04:11:45;;;;;;;8.67;7.87;;;12.20;99.90;;;12.71;100.00;95577.00;2270261;54;27225;-63
2021/06/05 04:14:31;;;;;;;10.03;7.87;;;12.50;99.90;;;12.97;100.00;95581.00;2261255;54;26722;-63
2021/06/05 04:17:18;;;;;;;8.13;6.93;;;12.40;99.90;;;12.76;100.00;95571.00;2287400;54;26744;-64
2021/06/05 04:23:05;;;;;;;7.40;6.70;;;12.40;99.90;;;12.89;100.00;95532.00;2208403;55;33945;-64
2021/06/05 04:28:48;;;;;;;7.03;6.13;;;12.60;99.90;;;13.14;100.00;95530.00;2249832;55;33673;-64
2021/06/05 04:31:35;;;;;;;7.23;6.53;;;12.60;99.90;;;13.09;100.00;95548.00;2148640;56;26166;-64
2021/06/05 04:37:17;;;;;;;7.57;6.60;;;12.70;99.90;;;13.69;100.00;95534.00;2194697;56;34314;-64
2021/06/05 04:40:09;;;;;;;8.67;7.47;;;13.20;99.90;;;13.72;100.00;95547.00;2169780;57;26704;-63
2021/06/05 04:42:55;;;;;;;9.67;7.67;;;13.20;99.90;;;13.79;100.00;95549.00;2219077;57;26707;-63
2021/06/05 04:45:43;;;;;;;7.53;6.73;;;13.60;99.90;;;14.32;100.00;95537.00;2240409;57;26769;-63
2021/06/05 04:48:29;;;;;;;6.53;5.93;;;14.00;99.90;;;14.58;100.00;95524.00;2169327;57;26920;-63
2021/06/05 04:51:18;;;;;;;6.27;5.67;;;14.20;99.90;;;14.66;100.00;95513.00;2142819;57;26891;-63
2021/06/05 04:54:05;;;;;;;8.63;5.67;;;14.30;99.90;;;14.74;100.00;95515.00;2118567;58;26757;-63
2021/06/05 04:56:52;;;;;;;5.25;4.75;;;14.90;99.90;;;15.85;100.00;95508.00;2129201;57;26995;-63
2021/06/05 05:05:32;;;;;;;5.85;3.97;;;16.60;99.90;;;20.20;100.00;95451.00;2227915;55;34571;-64
2021/06/05 05:08:20;;;;;;;5.12;3.65;;;18.20;99.90;;;22.38;100.00;95440.00;2189599;56;26365;-63
2021/06/05 05:11:08;;;;;;;4.75;3.65;;;18.30;99.90;;;23.09;100.00;95442.00;2184757;56;26706;-63
2021/06/05 05:13:54;;;;;;;4.28;3.53;;;19.00;99.90;;;22.79;100.00;95446.00;2190286;56;26961;-63
2021/06/05 05:16:41;;;;;;;6.28;3.20;;;19.50;99.90;;;21.59;100.00;95445.00;2134851;57;26305;-64
2021/06/05 05:19:28;;;;;;;3.60;2.80;;;20.30;99.90;;;23.26;100.00;95438.00;2167546;56;26821;-64
2021/06/05 05:22:14;;;;;;;3.25;2.95;;;21.10;99.90;;;24.30;100.00;95445.00;2183638;56;27011;-64
2021/06/05 05:25:01;;;;;;;3.40;2.80;;;21.70;99.90;;;24.46;100.00;95438.00;2222257;56;26179;-64
2021/06/05 05:27:48;;;;;;;6.40;3.30;;;22.00;99.90;;;24.69;100.00;95437.00;2268799;56;28940;-64
2021/06/05 05:33:37;;;;;;;3.30;3.00;;;22.50;99.90;;;28.38;92.64;95431.00;2280594;53;34543;-64
2021/06/05 05:36:27;;;;;;;4.50;2.60;;;23.50;99.90;;;27.92;88.47;95437.00;2242546;55;27289;-65
2021/06/05 05:39:18;;;;;;;4.70;2.60;;;21.90;99.90;;;27.09;97.60;95435.00;2259119;54;26119;-64
2021/06/05 05:42:06;;;;;;;3.80;2.80;;;23.10;99.90;;;28.30;83.99;95430.00;2303839;54;26236;-64
2021/06/05 05:44:53;;;;;;;2.67;2.42;;;22.40;99.90;;;28.23;86.09;95432.00;2283060;54;26616;-64
2021/06/05 05:47:39;;;;;;;5.28;2.47;;;23.40;99.90;;;28.20;85.18;95422.00;2248874;54;27416;-64
2021/06/05 05:50:30;;;;;;;3.55;2.50;;;22.40;99.90;;;27.26;85.27;95423.00;2244834;54;26660;-64
2021/06/05 05:53:17;;;;;;;3.45;2.60;;;23.10;99.90;;;28.35;80.10;95431.00;2247993;54;26627;-64
2021/06/05 05:56:04;;;;;;;2.92;2.50;;;22.80;99.90;;;29.13;78.81;95423.00;2249041;54;26663;-64
2021/06/05 05:58:54;;;;;;;3.40;3.00;;;22.50;99.90;;;28.35;83.23;95427.00;2252829;54;27078;-65
2021/06/05 06:01:40;;;;;;;3.40;2.65;;;22.70;99.90;;;28.55;83.71;95426.00;2214372;55;26609;-66
2021/06/05 06:04:27;;;;;;;3.58;2.65;;;23.30;99.90;;;28.51;81.30;95439.00;2226411;55;27436;-63
2021/06/05 06:07:14;;;;;;;4.85;2.70;;;23.50;99.90;;;27.84;83.27;95429.00;2214649;55;26749;-64
2021/06/05 06:10:00;;;;;;;3.90;2.80;;;23.30;99.90;;;26.93;89.26;95431.00;2213969;55;26713;-64
2021/06/05 06:12:47;;;;;;;3.10;2.78;;;22.50;99.90;;;27.21;93.74;95437.00;2256765;55;26650;-62
2021/06/05 06:15:33;;;;;;;4.25;2.80;;;22.60;99.90;;;26.97;92.99;95427.00;2225493;55;26228;-63
2021/06/05 06:18:20;;;;;;;3.40;2.60;;;22.90;99.90;;;26.55;96.43;95430.00;2261369;55;27520;-63
2021/06/05 06:24:03;;;;;;;3.15;2.85;;;23.70;99.90;;;26.76;97.18;95426.00;2214285;54;35081;-63
2021/06/05 06:26:49;;;;;;;5.53;3.00;;;22.10;99.90;;;27.16;98.15;95420.00;2192881;55;26646;-64
2021/06/05 06:29:36;;;;;;;3.67;2.83;;;22.60;99.90;;;26.04;98.54;95424.00;2202831;55;26973;-64
2021/06/05 06:32:22;;;;;;;3.00;2.70;;;21.80;99.90;;;25.25;100.00;95420.00;2199484;55;27231;-64
2021/06/05 06:38:10;;;;;;;2.87;2.50;;;22.50;99.90;;;29.34;80.76;95413.00;2257668;54;33354;-64
2021/06/05 06:40:57;;;;;;;3.25;2.58;;;24.00;99.90;;;28.48;82.49;95413.00;2212683;54;26676;-64
2021/06/05 06:43:44;;;;;;;2.83;2.45;;;25.20;99.90;;;31.40;67.99;95407.00;2206313;56;27188;-64
2021/06/05 06:46:36;;;;;;;2.72;2.30;;;26.70;99.90;;;31.45;66.56;95407.00;2209797;55;26155;-63
2021/06/05 06:49:24;;;;;;;2.75;2.12;;;27.70;99.90;;;33.87;51.59;95412.00;2220333;55;26928;-63
2021/06/05 06:52:11;;;;;;;3.42;2.28;;;26.20;99.90;;;31.18;54.93;95414.00;2222742;55;26590;-63
2021/06/05 06:54:57;;;;;;;2.90;1.98;;;26.10;99.90;;;31.49;56.95;95404.00;2247735;55;26728;-63
2021/06/05 06:57:44;;;;;;;3.20;2.20;;;26.20;99.90;;;32.19;60.32;95413.00;2250456;54;27266;-67
2021/06/05 07:00:34;;;;;;;3.40;2.55;;;25.70;99.90;;;31.27;60.92;95407.00;2247183;55;26716;-64
2021/06/05 07:03:21;;;;;;;2.47;2.25;;;26.30;99.90;;;31.26;58.37;95403.00;2260193;54;26676;-63
2021/06/05 07:06:08;;;;;;;5.97;2.03;;;25.30;99.90;;;29.29;79.97;95407.00;2241699;55;27118;-63
2021/06/05 07:08:56;;;;;;;2.85;2.20;;;25.00;99.90;;;29.60;69.65;95411.00;2280309;54;26642;-62
2021/06/05 07:11:42;;;;;;;2.87;2.00;;;24.80;99.90;;;29.26;69.64;95411.00;2241657;55;26892;-62
2021/06/05 07:14:29;;;;;;;4.28;2.12;;;23.60;99.90;;;27.28;78.14;95413.00;2249610;55;26113;-61
2021/06/05 07:17:16;;;;;;;2.67;1.75;;;23.40;99.90;;;26.78;86.11;95409.00;2241345;55;26198;-62
2021/06/05 07:20:03;;;;;;;2.60;1.70;;;24.50;99.90;;;26.30;85.95;95406.00;2236239;55;27267;-63
2021/06/05 07:22:51;;;;;;;2.20;1.80;;;25.20;99.90;;;27.11;85.17;95401.00;2222209;55;27174;-62
2021/06/05 07:25:37;;;;;;;2.75;1.83;;;25.10;99.90;;;27.50;81.08;95399.00;2226830;55;27406;-62
2021/06/05 07:28:27;;;;;;;1.90;1.70;;;25.50;99.90;;;28.94;72.40;95402.00;2250446;55;26734;-63
2021/06/05 07:34:10;;;;;;;2.00;1.80;;;25.90;99.90;;;26.18;91.24;95394.00;2194477;56;34191;-62
2021/06/05 07:37:03;;;;;;;2.87;1.80;;;23.50;99.90;;;24.79;100.00;95394.00;2135009;57;27352;-62
2021/06/05 07:39:50;;;;;;;3.33;1.77;;;24.00;99.90;;;26.69;94.57;95393.00;2131742;58;26840;-63
2021/06/05 07:42:38;;;;;;;2.22;1.50;;;24.80;99.90;;;27.15;82.10;95400.00;2136980;57;27038;-62
2021/06/05 07:45:25;;;;;;;1.95;1.58;;;24.40;99.90;;;25.76;94.29;95404.00;2145730;57;26909;-63
2021/06/05 07:48:13;;;;;;;2.35;1.60;;;22.30;99.90;;;23.66;100.00;95406.00;2153092;57;26863;-63
2021/06/05 07:51:00;;;;;;;2.80;2.00;;;22.90;99.90;;;24.87;100.00;95405.00;2147865;57;27313;-62
2021/06/05 07:53:47;;;;;;;1.77;1.60;;;23.20;99.90;;;24.81;100.00;95411.00;2124561;57;27170;-61
2021/06/05 07:56:35;;;;;;;2.85;1.60;;;23.00;99.90;;;24.65;100.00;95403.00;2138828;57;26631;-64
2021/06/05 07:59:27;;;;;;;1.92;1.70;;;23.10;99.90;;;25.83;100.00;95394.00;2196147;57;27131;-61
2021/06/05 08:02:13;;;;;;;4.07;1.50;;;24.20;99.90;;;27.18;87.66;95402.00;2170496;57;26746;-61
2021/06/05 08:05:00;;;;;;;2.22;1.35;;;23.60;99.90;;;26.06;93.70;95402.00;2141437;57;27211;-61
2021/06/05 08:07:47;;;;;;;2.67;1.35;;;23.30;99.90;;;25.60;100.00;95406.00;2147534;57;27339;-61
2021/06/05 08:10:34;;;;;;;2.12;1.50;;;23.50;99.90;;;25.97;97.76;95406.00;2145745;57;26054;-61
2021/06/05 08:13:22;;;;;;;3.05;1.42;;;22.90;99.90;;;24.76;100.00;95405.00;2143329;57;26838;-62
2021/06/05 08:16:08;;;;;;;2.50;1.67;;;22.80;99.90;;;24.67;100.00;95412.00;2145838;57;27308;-61
2021/06/05 08:18:55;;;;;;;2.08;1.40;;;23.30;99.90;;;25.50;98.75;95409.00;2162065;57;26307;-61
2021/06/05 08:21:45;;;;;;;2.40;1.50;;;22.90;99.90;;;24.80;100.00;95417.00;2151353;57;27422;-61
2021/06/05 08:24:31;;;;;;;2.83;1.33;;;23.00;99.90;;;24.85;100.00;95415.00;2145088;57;27300;-61
2021/06/05 08:30:22;;;;;;;2.37;1.42;;;24.20;99.90;;;28.14;91.77;95410.00;2274868;53;34802;-62
2021/06/05 08:33:10;;;;;;;3.28;1.33;;;26.00;99.90;;;30.30;64.61;95406.00;2213888;55;26788;-62
2021/06/05 08:35:57;;;;;;;2.45;1.80;;;25.00;99.90;;;28.01;70.22;95407.00;2274526;54;27303;-62
2021/06/05 08:38:44;;;;;;;1.60;1.30;;;24.70;99.90;;;27.63;83.47;95403.00;2250761;54;27302;-62
2021/06/05 08:41:36;;;;;;;1.75;1.60;;;25.30;99.90;;;28.30;75.70;95404.00;2227063;55;26589;-62
2021/06/05 08:44:34;;;;;;;1.70;1.60;;;24.30;99.90;;;26.66;95.00;95405.00;2230344;55;27316;-62
2021/06/05 08:50:28;;;;;;;2.78;1.58;;;24.30;99.90;;;26.96;92.33;95393.00;2284106;56;34090;-62
2021/06/05 08:53:24;;;;;;;2.55;1.50;;;23.20;99.90;;;24.99;100.00;95391.00;2134658;57;27280;-62
2021/06/05 08:56:16;;;;;;;2.00;1.40;;;22.50;99.90;;;23.97;100.00;95400.00;2240953;57;27330;-62
2021/06/05 08:59:03;;;;;;;2.33;1.50;;;22.00;99.90;;;23.15;100.00;95402.00;2137457;57;26975;-64
2021/06/05 09:01:51;;;;;;;1.77;1.40;;;21.80;99.90;;;23.05;100.00;95407.00;2152036;57;26734;-62
2021/06/05 09:07:36;;;;;;;3.92;1.50;;;21.30;99.90;;;22.43;100.00;95408.00;2279351;56;33486;-62
2021/06/05 09:13:18;;;;;;;2.58;1.52;;;21.30;99.90;;;22.57;100.00;95406.00;2160644;56;34060;-62
2021/06/05 09:19:28;;;;;;;1.73;1.27;;;21.40;99.90;;;22.72;100.00;95409.00;2229179;54;33254;-62
2021/06/05 09:25:30;;;;;;;3.12;1.37;;;21.20;99.90;;;22.44;100.00;95423.00;2228723;56;33852;-62
2021/06/05 09:28:25;;;;;;;1.52;1.27;;;21.10;99.90;;;22.31;100.00;95433.00;2275283;55;27668;-62
2021/06/05 09:31:19;;;;;;;1.95;1.52;;;21.00;99.90;;;22.06;100.00;95431.00;2185122;56;26766;-62
2021/06/05 09:34:15;;;;;;;2.20;1.40;;;21.20;99.90;;;22.39;100.00;95429.00;2176764;58;26623;-62
2021/06/05 09:37:02;;;;;;;1.73;1.40;;;21.20;99.90;;;22.63;100.00;95430.00;2170919;58;26220;-62
2021/06/05 09:40:07;;;;;;;2.35;1.23;;;21.20;99.90;;;22.33;100.00;95427.00;2177824;56;27835;-62
2021/06/05 09:42:57;;;;;;;1.15;1.00;;;21.00;99.90;;;22.14;100.00;95428.00;2174667;58;26826;-63
2021/06/05 09:45:46;;;;;;;2.15;1.10;;;20.90;99.90;;;22.20;100.00;95431.00;2169041;56;26943;-62
2021/06/05 09:48:38;;;;;;;1.83;1.00;;;20.90;99.90;;;22.13;100.00;95427.00;2179524;56;26804;-62
2021/06/05 09:51:38;;;;;;;1.83;1.02;;;21.20;99.90;;;22.57;100.00;95434.00;2220476;56;27154;-62
2021/06/05 09:54:33;;;;;;;1.30;1.05;;;21.20;99.90;;;22.52;100.00;95428.00;2201127;56;26595;-64
2021/06/05 09:57:37;;;;;;;2.40;1.05;;;21.10;99.90;;;22.44;100.00;95420.00;2180829;58;27049;-62
2021/06/05 10:03:32;;;;;;;1.98;1.00;;;21.50;99.90;;;23.40;100.00;95417.00;2189659;55;34669;-62
2021/06/05 10:06:37;;;;;;;1.40;1.15;;;21.90;99.90;;;23.51;100.00;95418.00;2227229;56;26306;-62
2021/06/05 10:09:39;;;;;;;1.33;1.02;;;22.00;99.90;;;23.62;100.00;95410.00;2172450;56;27259;-63
2021/06/05 10:12:29;;;;;;;1.40;1.20;;;22.00;99.90;;;23.70;100.00;95417.00;2177638;56;26948;-63
2021/06/05 10:15:20;;;;;;;1.73;1.00;;;22.00;99.90;;;23.52;100.00;95415.00;2159904;56;27331;-62
2021/06/05 10:18:13;;;;;;;1.40;1.10;;;22.10;99.90;;;23.72;100.00;95413.00;2174242;56;26903;-62
2021/06/05 10:24:04;;;;;;;1.90;1.10;;;22.20;99.90;;;24.06;100.00;95414.00;2413148;53;33858;-63
2021/06/05 10:26:52;;;;;;;1.12;1.00;;;22.20;99.90;;;23.47;100.00;95423.00;2234112;56;26573;-63
2021/06/05 10:29:44;;;;;;;3.25;1.35;;;21.90;99.90;;;23.19;100.00;95416.00;2233634;56;27369;-62
2021/06/05 10:35:38;;;;;;;1.10;0.88;;;21.90;99.90;;;23.60;100.00;95414.00;2199778;55;33821;-64
2021/06/05 10:41:34;;;;;;;1.35;1.12;;;22.00;99.90;;;23.83;100.00;95403.00;2177418;56;34847;-63
2021/06/05 10:44:23;;;;;;;1.58;1.30;;;22.30;99.90;;;24.03;100.00;95417.00;2172498;57;26818;-62
2021/06/05 10:50:18;;;;;;;1.48;1.15;;;22.50;99.90;;;24.35;100.00;95396.00;2326905;54;33535;-62
2021/06/05 10:53:18;;;;;;;1.67;1.27;;;22.60;99.90;;;24.13;100.00;95404.00;2299504;55;26802;-62
2021/06/05 10:56:18;;;;;;;2.33;1.05;;;22.60;99.90;;;24.28;100.00;95400.00;2462947;54;27749;-62
2021/06/05 11:02:02;;;;;;;1.62;1.30;;;23.70;99.90;;;25.70;100.00;95385.00;2258063;55;34242;-63
2021/06/05 11:04:49;;;;;;;2.08;1.30;;;23.90;99.90;;;25.88;100.00;95386.00;2208655;56;26767;-64
2021/06/05 11:07:36;;;;;;;2.92;1.40;;;24.20;99.90;;;26.04;100.00;95385.00;2203261;56;27507;-63
2021/06/05 11:10:48;;;;;;;3.30;1.70;;;24.20;99.90;;;26.29;100.00;95383.00;2429396;55;27462;-64
2021/06/05 11:17:36;;;;;;;3.50;1.42;;;24.10;99.90;;;25.82;100.00;95391.00;2305940;54;33721;-63
2021/06/05 11:23:37;;;;;;;1.62;1.33;;;22.90;99.90;;;24.31;100.00;95392.00;2282940;55;34139;-63
2021/06/05 11:26:42;;;;;;;2.12;1.10;;;22.70;99.90;;;24.03;100.00;95397.00;2134911;57;27320;-62
2021/06/05 11:32:57;;;;;;;2.25;1.45;;;21.50;99.90;;;22.18;100.00;95395.00;2380471;55;34687;-62
2021/06/05 11:35:52;;;;;;;2.70;1.60;;;21.20;99.90;;;22.06;100.00;95403.00;2386382;56;27219;-63
2021/06/05 11:38:51;;;;;;;3.25;1.25;;;20.80;99.90;;;21.68;100.00;95398.00;2392202;56;27390;-62
2021/06/05 11:41:49;;;;;;;6.05;1.70;;;20.50;99.90;;;21.11;100.00;95391.00;2220428;56;26604;-62
2021/06/05 11:44:38;;;;;;;2.30;1.40;;;20.20;99.90;;;20.74;100.00;95402.00;2177952;56;26989;-62
2021/06/05 11:47:41;;;;;;;2.03;1.70;;;19.90;99.90;;;20.53;100.00;95401.00;2172752;56;26786;-63
2021/06/05 11:50:32;;;;;;;3.22;1.83;;;19.70;99.90;;;20.40;100.00;95401.00;2174353;56;26887;-62
2021/06/05 11:53:33;;;;;;;3.40;1.80;;;19.60;99.90;;;20.40;100.00;95394.00;2200699;56;26747;-62
2021/06/05 11:56:26;;;;;;;3.60;1.70;;;19.80;99.90;;;20.75;100.00;95399.00;2208513;56;27072;-63
2021/06/05 11:59:25;;;;;;;3.83;1.67;;;20.10;99.90;;;21.14;100.00;95401.00;2155879;56;26956;-62
2021/06/05 12:02:23;;;;;;;1.92;1.48;;;20.30;99.90;;;21.47;100.00;95396.00;2264901;55;26864;-62
2021/06/05 12:05:20;;;;;;;3.72;1.30;;;20.30;99.90;;;21.59;100.00;95393.00;2208415;55;27303;-62
2021/06/05 12:08:30;;;;;;;2.50;1.20;;;20.20;99.90;;;21.38;100.00;95392.00;2203224;55;26415;-62
2021/06/05 12:11:28;;;;;;;2.58;1.17;;;20.40;99.90;;;21.68;100.00;95387.00;2205033;55;26970;-63
2021/06/05 12:14:35;;;;;;;1.60;1.20;;;20.10;99.90;;;21.16;100.00;95388.00;2197838;55;26690;-63
2021/06/05 12:20:28;;;;;;;2.75;1.40;;;20.20;99.90;;;21.05;100.00;95379.00;2185886;55;34394;-62
2021/06/05 12:26:26;;;;;;;1.25;1.00;;;19.90;99.90;;;21.21;100.00;95369.00;2329087;56;33969;-62
2021/06/05 12:32:18;;;;;;;2.37;1.50;;;19.90;99.90;;;20.95;100.00;95370.00;2325422;57;34243;-62
2021/06/05 12:35:22;;;;;;;1.52;1.12;;;19.50;99.90;;;20.51;100.00;95366.00;2299512;58;27017;-63
2021/06/05 12:38:13;;;;;;;1.48;1.33;;;20.00;99.90;;;21.32;100.00;95374.00;2099231;59;26798;-62
2021/06/05 12:43:59;;;;;;;2.50;1.50;;;19.90;99.90;;;21.21;100.00;95375.00;2306011;56;34020;-62
2021/06/05 12:46:45;;;;;;;2.37;1.10;;;20.20;99.90;;;21.33;100.00;95383.00;2151346;56;27327;-62
2021/06/05 12:49:33;;;;;;;1.42;1.20;;;20.60;99.90;;;21.86;100.00;95375.00;2134116;58;26840;-62
2021/06/05 12:52:28;;;;;;;2.05;1.40;;;20.80;99.90;;;21.97;100.00;95371.00;2116552;57;26730;-62
2021/06/05 12:55:22;;;;;;;2.97;1.48;;;21.30;99.90;;;22.67;100.00;95369.00;2118621;56;26734;-62
2021/06/05 12:58:11;;;;;;;1.92;1.27;;;21.70;99.90;;;23.03;100.00;95360.00;2130773;57;26843;-63
2021/06/05 13:03:56;;;;;;;2.22;1.30;;;22.30;99.90;;;23.72;100.00;95349.00;2206531;55;33926;-62
2021/06/05 13:06:59;;;;;;;2.62;1.20;;;22.40;99.90;;;23.76;100.00;95350.00;2372749;55;26660;-62
2021/06/05 13:09:47;;;;;;;1.48;1.10;;;22.30;99.90;;;23.47;100.00;95343.00;2361120;55;27099;-63
2021/06/05 13:15:43;;;;;;;1.40;1.10;;;22.60;99.90;;;23.81;100.00;95341.00;2207673;55;33251;-62
2021/06/05 13:18:33;;;;;;;2.35;1.20;;;22.50;99.90;;;23.45;100.00;95342.00;2217413;56;27327;-63
2021/06/05 13:21:25;;;;;;;2.60;0.90;;;22.60;99.90;;;23.75;100.00;95350.00;2182228;57;27232;-63
2021/06/05 13:24:15;;;;;;;3.03;1.30;;;22.70;99.90;;;23.97;100.00;95343.00;2171777;56;26683;-64
2021/06/05 13:27:18;;;;;;;2.08;1.23;;;23.10;99.90;;;24.25;100.00;95340.00;2168361;57;27268;-62
2021/06/05 13:33:37;;;;;;;1.20;0.85;;;22.90;99.90;;;24.30;100.00;95336.00;2364162;54;34277;-63
2021/06/05 13:39:24;;;;;;;1.52;1.10;;;23.10;99.90;;;24.23;100.00;95322.00;2310054;54;34279;-63
2021/06/05 13:42:11;;;;;;;1.65;1.08;;;23.10;99.90;;;24.22;100.00;95326.00;2125031;57;26842;-63
2021/06/05 13:44:59;;;;;;;3.25;1.20;;;23.20;99.90;;;24.22;100.00;95319.00;2167940;55;26150;-64
2021/06/05 13:47:46;;;;;;;3.12;1.15;;;23.30;99.90;;;24.39;100.00;95311.00;2183944;55;26189;-63
2021/06/05 13:50:35;;;;;;;3.33;1.17;;;23.60;99.90;;;24.67;100.00;95308.00;2183066;55;26821;-64
2021/06/05 13:53:29;;;;;;;3.50;1.20;;;23.40;99.90;;;24.34;100.00;95309.00;2219918;55;26708;-62
2021/06/05 13:56:19;;;;;;;2.62;1.15;;;23.20;99.90;;;24.09;100.00;95314.00;2193178;55;26270;-63
2021/06/05 13:59:06;;;;;;;2.83;2.00;;;23.30;99.90;;;24.50;100.00;95297.00;2205108;55;26727;-62
2021/06/05 14:01:53;;;;;;;1.90;1.25;;;23.00;99.90;;;23.84;100.00;95300.00;2209098;56;26800;-63
2021/06/05 14:04:39;;;;;;;1.48;1.08;;;23.40;99.90;;;24.48;100.00;95297.00;2311458;55;26674;-63
2021/06/05 14:07:26;;;;;;;3.17;1.50;;;23.30;99.90;;;24.19;100.00;95303.00;2192045;56;26647;-62
2021/06/05 14:10:14;;;;;;;2.10;1.35;;;23.60;99.90;;;24.62;100.00;95302.00;2324525;55;26610;-62
2021/06/05 14:13:04;;;;;;;2.90;1.45;;;23.10;99.90;;;23.81;100.00;95307.00;2248018;55;26146;-63
2021/06/05 14:18:49;;;;;;;1.40;1.10;;;22.60;99.90;;;23.64;100.00;95309.00;2380237;55;34499;-63
2021/06/05 14:21:36;;;;;;;2.97;1.50;;;22.40;99.90;;;23.36;100.00;95309.00;2169183;56;26810;-63